createdAt,value
2018-12-22T00:00:26.638Z,22.30
2018-12-22T00:02:54.252Z,21.70
2018-12-22T00:05:21.891Z,21.30
2018-12-22T00:07:49.507Z,21.10
2018-12-22T00:10:17.112Z,21.10
2018-12-22T00:12:44.747Z,21.20
2018-12-22T00:15:12.354Z,22.10
2018-12-22T00:17:39.953Z,22.20
2018-12-22T00:20:08.147Z,21.90
2018-12-22T00:22:35.747Z,21.60
2018-12-22T00:25:03.350Z,21.60
2018-12-22T00:27:30.981Z,21.60
2018-12-22T00:29:58.637Z,21.20
2018-12-22T00:32:26.233Z,21.20
2018-12-22T00:34:54.157Z,20.90
2018-12-22T00:37:21.765Z,20.50
2018-12-22T00:39:49.374Z,20.30
2018-12-22T00:42:17.006Z,20.20
2018-12-22T00:44:44.606Z,20.30
2018-12-22T00:47:12.218Z,20.50
2018-12-22T00:49:40.173Z,20.40
2018-12-22T00:52:07.778Z,20.50
2018-12-22T00:54:35.385Z,20.60
2018-12-22T00:57:03.023Z,20.20
2018-12-22T00:59:30.630Z,20.40
2018-12-22T01:01:58.240Z,20.50
2018-12-22T01:04:26.008Z,20.80
2018-12-22T01:06:53.620Z,21.00
2018-12-22T01:09:21.233Z,20.90
2018-12-22T01:11:48.876Z,20.70
2018-12-22T01:14:16.496Z,21.00
2018-12-22T01:16:44.854Z,20.50
2018-12-22T01:19:12.688Z,20.30
2018-12-22T01:21:40.301Z,20.50
2018-12-22T01:24:07.988Z,20.60
2018-12-22T01:26:35.632Z,20.90
2018-12-22T01:29:03.236Z,20.60
2018-12-22T01:31:30.884Z,20.10
2018-12-22T01:33:58.518Z,20.10
2018-12-22T01:36:26.124Z,20.10
2018-12-22T01:38:53.724Z,20.20
2018-12-22T01:41:21.653Z,20.70
2018-12-22T01:43:49.266Z,20.60
2018-12-22T01:46:16.871Z,21.20
2018-12-22T01:48:44.508Z,21.20
2018-12-22T01:51:12.116Z,21.30
2018-12-22T01:53:39.726Z,21.30
2018-12-22T01:56:07.665Z,21.30
2018-12-22T01:58:35.283Z,20.80
2018-12-22T02:01:02.891Z,20.50
2018-12-22T02:03:30.540Z,21.00
2018-12-22T02:05:58.149Z,21.00
2018-12-22T02:08:25.751Z,20.90
2018-12-22T02:10:53.387Z,20.70
2018-12-22T02:13:20.996Z,20.60
2018-12-22T02:15:48.605Z,20.20
2018-12-22T02:18:16.586Z,20.30
2018-12-22T02:20:44.206Z,20.00
2018-12-22T02:23:11.824Z,19.90
2018-12-22T02:25:39.457Z,19.80
2018-12-22T02:28:07.070Z,19.80
2018-12-22T02:30:34.684Z,20.10
2018-12-22T02:33:02.379Z,19.50
2018-12-22T02:35:30.009Z,19.10
2018-12-22T02:37:57.616Z,19.70
2018-12-22T02:40:25.254Z,19.80
2018-12-22T02:42:52.868Z,20.20
2018-12-22T02:45:20.467Z,20.70
2018-12-22T02:47:48.117Z,20.40
2018-12-22T02:50:15.720Z,20.20
2018-12-22T02:52:43.330Z,20.20
2018-12-22T02:55:11.556Z,20.00
2018-12-22T02:57:39.159Z,20.10
2018-12-22T03:00:10.996Z,19.90
2018-12-22T03:02:38.601Z,20.40
2018-12-22T03:05:07.150Z,20.90
2018-12-22T03:07:34.781Z,20.90
2018-12-22T03:10:02.395Z,21.10
2018-12-22T03:12:30.009Z,20.80
2018-12-22T03:14:57.638Z,20.30
2018-12-22T03:17:25.243Z,20.60
2018-12-22T03:19:52.852Z,20.30
2018-12-22T03:22:20.493Z,20.50
2018-12-22T03:24:48.100Z,20.70
2018-12-22T03:27:15.724Z,21.30
2018-12-22T03:29:43.355Z,21.00
2018-12-22T03:32:10.980Z,21.30
2018-12-22T03:34:38.587Z,21.60
2018-12-22T03:37:06.227Z,21.80
2018-12-22T03:39:33.837Z,22.00
2018-12-22T03:42:01.572Z,22.20
2018-12-22T03:44:29.215Z,22.30
2018-12-22T03:46:56.838Z,22.80
2018-12-22T03:49:24.439Z,22.90
2018-12-22T03:51:52.068Z,23.00
2018-12-22T03:54:19.679Z,22.70
2018-12-22T03:56:47.283Z,22.20
2018-12-22T03:59:14.919Z,22.10
2018-12-22T04:01:42.559Z,21.70
2018-12-22T04:04:10.159Z,22.20
2018-12-22T04:06:37.799Z,22.60
2018-12-22T04:09:05.934Z,23.30
2018-12-22T04:11:33.550Z,23.80
2018-12-22T04:14:01.195Z,24.80
2018-12-22T04:16:28.816Z,24.90
2018-12-22T04:18:56.411Z,25.30
2018-12-22T04:21:24.051Z,25.30
2018-12-22T04:23:51.655Z,24.80
2018-12-22T04:26:19.259Z,24.60
2018-12-22T04:28:46.892Z,22.50
2018-12-22T04:31:14.494Z,22.20
2018-12-22T04:33:42.096Z,22.50
2018-12-22T04:36:09.740Z,22.40
2018-12-22T04:38:37.343Z,22.70
2018-12-22T04:41:04.954Z,22.30
2018-12-22T04:43:32.595Z,22.20
2018-12-22T04:46:00.202Z,22.10
2018-12-22T04:48:27.815Z,21.90
2018-12-22T04:50:55.459Z,22.80
2018-12-22T04:53:23.079Z,22.40
2018-12-22T04:55:50.828Z,22.90
2018-12-22T04:58:18.478Z,23.30
2018-12-22T05:00:46.092Z,23.00
2018-12-22T05:03:13.750Z,22.60
2018-12-22T05:05:41.394Z,22.70
2018-12-22T05:08:08.993Z,22.90
2018-12-22T05:10:36.595Z,23.60
2018-12-22T05:13:04.229Z,23.80
2018-12-22T05:15:31.834Z,23.00
2018-12-22T05:17:59.447Z,23.00
2018-12-22T05:20:27.089Z,22.90
2018-12-22T05:22:54.709Z,23.40
2018-12-22T05:25:22.319Z,23.40
2018-12-22T05:27:49.954Z,23.90
2018-12-22T05:30:17.554Z,23.60
2018-12-22T05:32:45.167Z,23.50
2018-12-22T05:35:12.814Z,23.40
2018-12-22T05:37:40.420Z,23.10
2018-12-22T05:40:08.017Z,23.10
2018-12-22T05:42:35.647Z,23.30
2018-12-22T05:45:03.242Z,23.20
2018-12-22T05:47:30.852Z,23.50
2018-12-22T05:49:58.495Z,23.70
2018-12-22T05:52:26.098Z,23.70
2018-12-22T05:54:53.699Z,23.40
2018-12-22T05:57:21.329Z,24.00
2018-12-22T05:59:48.946Z,24.30
2018-12-22T06:02:16.552Z,24.60
2018-12-22T06:04:44.230Z,24.50
2018-12-22T06:07:11.843Z,23.90
2018-12-22T06:09:39.441Z,23.10
2018-12-22T06:12:07.446Z,23.10
2018-12-22T06:14:35.059Z,22.60
2018-12-22T06:17:02.671Z,22.60
2018-12-22T06:19:30.315Z,22.60
2018-12-22T06:21:57.928Z,23.20
2018-12-22T06:24:25.542Z,22.60
2018-12-22T06:26:53.178Z,23.20
2018-12-22T06:29:20.778Z,23.40
2018-12-22T06:31:48.392Z,22.90
2018-12-22T06:34:16.035Z,22.60
2018-12-22T06:36:43.641Z,22.70
2018-12-22T06:39:11.249Z,22.60
2018-12-22T06:41:38.891Z,22.20
2018-12-22T06:44:06.516Z,22.30
2018-12-22T06:46:34.124Z,22.20
2018-12-22T06:49:01.761Z,21.70
2018-12-22T06:51:29.364Z,21.20
2018-12-22T06:53:56.961Z,20.50
2018-12-22T06:56:24.588Z,20.90
2018-12-22T06:58:52.189Z,21.30
2018-12-22T07:01:19.783Z,21.20
2018-12-22T07:03:47.408Z,21.60
2018-12-22T07:06:15.080Z,22.60
2018-12-22T07:08:42.681Z,22.70
2018-12-22T07:11:10.306Z,23.10
2018-12-22T07:13:37.905Z,23.70
2018-12-22T07:16:07.423Z,23.90
2018-12-22T07:18:35.147Z,23.50
2018-12-22T07:21:02.744Z,23.40
2018-12-22T07:23:30.343Z,23.20
2018-12-22T07:25:57.983Z,23.50
2018-12-22T07:28:25.591Z,23.00
2018-12-22T07:30:54.579Z,23.40
2018-12-22T07:33:22.499Z,23.20
2018-12-22T07:35:50.096Z,23.10
2018-12-22T07:38:17.693Z,22.60
2018-12-22T07:40:45.404Z,22.00
2018-12-22T07:43:13.007Z,22.20
2018-12-22T07:45:40.615Z,21.40
2018-12-22T07:48:08.253Z,21.50
2018-12-22T07:50:35.875Z,21.30
2018-12-22T07:53:03.478Z,20.60
2018-12-22T07:55:31.292Z,20.70
2018-12-22T07:57:59.549Z,20.50
2018-12-22T08:01:25.323Z,20.00
2018-12-22T08:03:52.922Z,21.50
2018-12-22T08:06:20.551Z,21.90
2018-12-22T08:08:48.185Z,23.00
2018-12-22T08:11:15.786Z,23.50
2018-12-22T08:13:43.383Z,24.00
2018-12-22T08:16:11.339Z,24.20
2018-12-22T08:18:38.938Z,23.70
2018-12-22T08:21:06.534Z,23.30
2018-12-22T08:23:34.163Z,22.30
2018-12-22T08:26:01.759Z,21.80
2018-12-22T08:28:29.371Z,22.00
2018-12-22T08:30:57.012Z,22.90
2018-12-22T08:33:24.623Z,23.50
2018-12-22T08:35:52.216Z,23.20
2018-12-22T08:38:19.840Z,23.10
2018-12-22T08:40:47.441Z,23.20
2018-12-22T08:43:15.037Z,23.20
2018-12-22T08:45:42.670Z,23.60
2018-12-22T08:48:10.267Z,23.30
2018-12-22T08:50:37.926Z,23.20
2018-12-22T08:53:05.722Z,23.80
2018-12-22T08:55:33.309Z,23.60
2018-12-22T08:58:00.899Z,24.60
2018-12-22T09:00:28.519Z,24.20
2018-12-22T09:02:56.556Z,24.30
2018-12-22T09:05:24.338Z,24.90
2018-12-22T09:07:52.221Z,25.00
2018-12-22T09:10:19.817Z,24.40
2018-12-22T09:12:47.411Z,24.20
2018-12-22T09:15:15.038Z,24.30
2018-12-22T09:17:42.643Z,23.80
2018-12-22T09:20:10.251Z,23.50
2018-12-22T09:22:38.395Z,23.40
2018-12-22T09:25:07.319Z,23.90
2018-12-22T09:27:35.022Z,24.20
2018-12-22T09:30:02.645Z,23.90
2018-12-22T09:32:30.252Z,24.00
2018-12-22T09:34:57.848Z,23.80
2018-12-22T09:37:25.469Z,24.20
2018-12-22T09:39:53.066Z,24.40
2018-12-22T09:42:20.671Z,23.90
2018-12-22T09:44:48.296Z,24.00
2018-12-22T09:47:16.027Z,23.90
2018-12-22T09:49:43.622Z,23.40
2018-12-22T09:52:11.243Z,23.90
2018-12-22T09:54:38.828Z,23.50
2018-12-22T09:57:06.547Z,23.60
2018-12-22T09:59:34.165Z,24.00
2018-12-22T10:02:01.762Z,23.40
2018-12-22T10:04:29.350Z,22.90
2018-12-22T10:06:57.113Z,23.10
2018-12-22T10:09:24.833Z,22.90
2018-12-22T10:11:52.427Z,22.90
2018-12-22T10:14:20.039Z,23.40
2018-12-22T10:16:47.639Z,22.50
2018-12-22T10:19:15.846Z,22.70
2018-12-22T10:21:43.538Z,22.70
2018-12-22T10:24:12.028Z,22.80
2018-12-22T10:26:39.703Z,23.90
2018-12-22T10:29:07.349Z,23.10
2018-12-22T10:31:34.959Z,22.90
2018-12-22T10:34:02.636Z,23.20
2018-12-22T10:36:30.367Z,23.80
2018-12-22T10:38:57.961Z,23.50
2018-12-22T10:41:25.556Z,23.50
2018-12-22T10:43:53.177Z,23.60
2018-12-22T10:46:20.781Z,23.20
2018-12-22T10:48:48.378Z,23.80
2018-12-22T10:51:24.050Z,23.70
2018-12-22T10:55:53.947Z,24.20
2018-12-22T10:58:21.592Z,23.00
2018-12-22T11:00:49.319Z,23.00
2018-12-22T11:03:16.927Z,23.10
2018-12-22T11:05:44.564Z,23.10
2018-12-22T11:08:12.174Z,22.60
2018-12-22T11:10:39.766Z,22.50
2018-12-22T11:13:07.389Z,22.30
2018-12-22T11:15:34.991Z,21.40
2018-12-22T11:18:02.580Z,20.80
2018-12-22T11:20:30.206Z,20.20
2018-12-22T11:22:57.797Z,19.90
2018-12-22T11:25:25.438Z,20.70
2018-12-22T11:27:53.054Z,21.10
2018-12-22T11:30:23.404Z,21.30
2018-12-22T11:32:51.005Z,21.80
2018-12-22T11:35:18.612Z,22.50
2018-12-22T11:37:46.201Z,22.20
2018-12-22T11:40:13.823Z,22.60
2018-12-22T11:42:47.626Z,23.30
2018-12-22T11:45:11.069Z,22.20
2018-12-22T11:47:41.621Z,22.70
2018-12-22T11:50:14.107Z,21.00
2018-12-22T11:52:41.787Z,21.00
2018-12-22T11:55:09.399Z,21.10
2018-12-22T11:57:37.021Z,20.60
2018-12-22T12:00:08.090Z,20.50
2018-12-22T12:02:35.680Z,21.80
2018-12-22T12:05:05.429Z,22.10
2018-12-22T12:07:33.070Z,21.70
2018-12-22T12:10:01.015Z,20.70
2018-12-22T12:12:28.622Z,21.10
2018-12-22T12:14:56.255Z,19.90
2018-12-22T12:17:27.904Z,19.40
2018-12-22T12:19:55.552Z,20.20
2018-12-22T12:22:24.087Z,20.50
2018-12-22T12:24:51.753Z,19.80
2018-12-22T12:27:19.443Z,19.50
2018-12-22T12:29:47.051Z,18.80
2018-12-22T12:32:15.567Z,19.20
2018-12-22T12:34:43.221Z,18.50
2018-12-22T12:37:10.830Z,18.40
2018-12-22T12:39:38.426Z,18.80
2018-12-22T12:42:06.045Z,19.00
2018-12-22T12:44:33.766Z,18.90
2018-12-22T12:47:01.366Z,18.50
2018-12-22T12:49:28.992Z,18.70
2018-12-22T12:51:56.602Z,18.70
2018-12-22T12:54:24.280Z,18.50
2018-12-22T12:56:51.927Z,18.70
2018-12-22T12:59:19.535Z,18.00
2018-12-22T13:01:47.129Z,19.10
2018-12-22T13:04:14.753Z,19.60
2018-12-22T13:06:42.343Z,19.10
2018-12-22T13:09:09.947Z,19.90
2018-12-22T13:11:37.651Z,18.70
2018-12-22T13:14:05.327Z,18.90
2018-12-22T13:16:32.930Z,18.60
2018-12-22T13:19:00.563Z,19.40
2018-12-22T13:21:28.150Z,19.60
2018-12-22T13:23:55.744Z,19.70
2018-12-22T13:26:23.408Z,19.80
2018-12-22T13:28:51.043Z,19.20
2018-12-22T13:31:18.631Z,18.90
2018-12-22T13:33:46.252Z,19.60
2018-12-22T13:36:13.845Z,18.80
2018-12-22T13:38:42.070Z,18.20
2018-12-22T13:41:09.746Z,18.60
2018-12-22T13:43:37.338Z,18.90
2018-12-22T13:46:04.934Z,17.80
2018-12-22T13:48:32.830Z,17.70
2018-12-22T13:51:00.814Z,17.70
2018-12-22T13:53:28.565Z,18.20
2018-12-22T13:55:56.186Z,18.10
2018-12-22T13:58:24.015Z,18.10
2018-12-22T14:00:51.616Z,18.10
2018-12-22T14:03:19.238Z,17.20
2018-12-22T14:05:46.854Z,17.30
2018-12-22T14:08:14.451Z,18.10
2018-12-22T14:10:42.089Z,18.90
2018-12-22T14:13:09.726Z,19.00
2018-12-22T14:15:38.773Z,18.60
2018-12-22T14:18:21.710Z,17.70
2018-12-22T14:20:49.400Z,17.50
2018-12-22T14:23:17.619Z,16.70
2018-12-22T14:25:45.559Z,17.40
2018-12-22T14:28:13.175Z,18.10
2018-12-22T14:30:40.767Z,18.10
2018-12-22T14:33:08.410Z,18.00
2018-12-22T14:35:37.173Z,18.80
2018-12-22T14:44:22.373Z,15.00
2018-12-22T14:46:49.969Z,13.80
2018-12-22T14:49:17.609Z,14.50
2018-12-22T14:51:45.300Z,15.50
2018-12-22T14:54:12.928Z,16.10
2018-12-22T14:56:40.561Z,16.60
2018-12-22T14:59:08.350Z,17.80
2018-12-22T15:01:35.979Z,17.90
2018-12-22T15:04:03.740Z,17.50
2018-12-22T15:06:31.396Z,17.00
2018-12-22T15:08:59.036Z,17.80
2018-12-22T15:11:26.671Z,17.90
2018-12-22T15:13:54.328Z,18.00
2018-12-22T15:16:21.952Z,17.60
2018-12-22T15:18:49.579Z,17.90
2018-12-22T15:21:17.334Z,17.80
2018-12-22T15:23:44.966Z,17.50
2018-12-22T15:26:12.586Z,17.40
2018-12-22T15:28:47.137Z,18.30
2018-12-22T15:31:09.916Z,18.30
2018-12-22T15:33:37.568Z,18.90
2018-12-22T15:36:05.235Z,18.60
2018-12-22T15:38:32.897Z,18.00
2018-12-22T15:41:00.516Z,19.20
2018-12-22T15:43:28.205Z,19.20
2018-12-22T15:45:55.846Z,18.80
2018-12-22T15:48:23.466Z,18.90
2018-12-22T15:50:51.129Z,18.80
2018-12-22T15:53:18.748Z,17.60
2018-12-22T15:55:46.378Z,17.20
2018-12-22T15:58:14.293Z,17.20
2018-12-22T16:00:41.923Z,17.10
2018-12-22T16:03:09.536Z,17.10
2018-12-22T16:05:37.192Z,16.70
2018-12-22T16:08:04.913Z,16.60
2018-12-22T16:10:32.534Z,17.00
2018-12-22T16:13:00.189Z,17.10
2018-12-22T16:15:27.960Z,17.30
2018-12-22T16:17:55.611Z,17.80
2018-12-22T16:20:23.356Z,18.50
2018-12-22T16:22:56.278Z,19.10
2018-12-22T16:25:23.932Z,18.70
2018-12-22T16:27:55.419Z,19.10
2018-12-22T16:30:29.609Z,18.70
2018-12-22T16:33:01.624Z,18.60
2018-12-22T16:35:26.971Z,18.30
2018-12-22T16:37:54.631Z,18.50
2018-12-22T16:40:22.252Z,18.20
2018-12-22T16:42:49.908Z,18.10
2018-12-22T16:45:17.596Z,18.30
2018-12-22T16:47:45.241Z,19.00
2018-12-22T16:50:15.597Z,19.30
2018-12-22T16:52:43.221Z,18.90
2018-12-22T16:55:13.715Z,18.60
2018-12-22T16:57:44.976Z,18.70
2018-12-22T17:03:12.555Z,18.40
2018-12-22T17:05:40.175Z,18.30
2018-12-22T17:08:07.778Z,18.00
2018-12-22T17:10:35.371Z,17.40
2018-12-22T17:13:02.993Z,17.70
2018-12-22T17:15:30.675Z,18.00
2018-12-22T17:17:58.280Z,18.90
2018-12-22T17:20:27.037Z,19.00
2018-12-22T17:23:07.184Z,19.30
2018-12-22T17:25:37.871Z,18.70
2018-12-22T17:28:05.490Z,18.90
2018-12-22T17:30:33.121Z,18.60
2018-12-22T17:33:00.775Z,18.00
2018-12-22T17:35:28.463Z,18.10
2018-12-22T17:37:56.154Z,18.20
2018-12-22T17:40:23.806Z,18.50
2018-12-22T17:42:51.417Z,18.40
2018-12-22T17:45:19.066Z,19.00
2018-12-22T17:47:46.706Z,19.40
2018-12-22T17:50:14.332Z,18.70
2018-12-22T17:52:41.941Z,18.50
2018-12-22T17:55:10.747Z,17.90
2018-12-22T17:57:38.355Z,18.10
2018-12-22T18:00:13.698Z,18.40
2018-12-22T18:02:45.361Z,18.30
2018-12-22T18:05:14.830Z,18.70
2018-12-22T18:07:44.398Z,18.60
2018-12-22T18:10:12.000Z,18.70
2018-12-22T18:12:40.618Z,18.90
2018-12-22T18:22:01.680Z,19.10
2018-12-22T18:24:29.287Z,18.60
2018-12-22T18:26:56.889Z,18.70
2018-12-22T18:29:24.529Z,18.40
2018-12-22T18:31:52.216Z,18.40
2018-12-22T18:34:19.823Z,17.80
2018-12-22T18:36:47.458Z,18.50
2018-12-22T18:39:15.084Z,17.90
2018-12-22T18:41:42.941Z,18.10
2018-12-22T18:44:10.711Z,18.30
2018-12-22T18:46:38.341Z,19.10
2018-12-22T18:49:05.956Z,19.10
2018-12-22T18:51:33.595Z,18.30
2018-12-22T18:54:01.208Z,18.60
2018-12-22T18:56:28.823Z,18.80
2018-12-22T18:58:57.119Z,19.10
2018-12-22T19:01:24.801Z,19.20
2018-12-22T19:03:52.437Z,19.30
2018-12-22T19:06:20.083Z,19.60
2018-12-22T19:08:47.830Z,20.60
2018-12-22T19:11:16.246Z,20.50
2018-12-22T19:13:43.875Z,20.60
2018-12-22T19:16:11.476Z,21.20
2018-12-22T19:18:39.107Z,21.30
2018-12-22T19:21:06.741Z,20.60
2018-12-22T19:23:34.379Z,21.20
2018-12-22T19:26:01.985Z,22.00
2018-12-22T19:28:29.630Z,22.10
2018-12-22T19:30:57.234Z,21.70
2018-12-22T19:33:24.862Z,21.20
2018-12-22T19:35:52.539Z,21.20
2018-12-22T19:38:20.154Z,20.60
2018-12-22T19:40:47.759Z,21.30
2018-12-22T19:43:15.402Z,21.40
2018-12-22T19:45:43.006Z,21.00
2018-12-22T19:48:10.780Z,19.70
2018-12-22T19:50:38.421Z,19.80
2018-12-22T19:53:06.148Z,19.90
2018-12-22T19:55:34.212Z,20.70
2018-12-22T19:58:02.174Z,21.30
2018-12-22T20:00:29.845Z,20.70
2018-12-22T20:02:57.465Z,20.40
2018-12-22T20:05:25.116Z,20.60
2018-12-22T20:07:52.726Z,19.80
2018-12-22T20:10:20.337Z,20.60
2018-12-22T20:12:47.969Z,21.10
2018-12-22T20:15:15.658Z,21.80
2018-12-22T20:17:43.273Z,22.40
2018-12-22T20:20:10.972Z,22.80
2018-12-22T20:22:38.608Z,23.80
2018-12-22T20:25:07.364Z,24.40
2018-12-22T20:27:35.016Z,24.70
2018-12-22T20:30:02.706Z,24.20
2018-12-22T20:32:30.311Z,23.60
2018-12-22T20:34:58.219Z,22.30
2018-12-22T20:37:25.838Z,22.60
2018-12-22T20:39:53.463Z,23.20
2018-12-22T20:42:21.100Z,23.50
2018-12-22T20:44:48.708Z,22.50
2018-12-22T20:47:16.325Z,22.00
2018-12-22T20:49:44.272Z,22.40
2018-12-22T20:52:11.874Z,21.80
2018-12-22T20:54:39.604Z,21.50
2018-12-22T20:57:07.282Z,22.50
2018-12-22T20:59:34.891Z,22.20
2018-12-22T21:02:02.514Z,21.20
2018-12-22T21:04:30.168Z,20.70
2018-12-22T21:06:57.773Z,21.00
2018-12-22T21:09:25.386Z,20.60
2018-12-22T21:11:53.048Z,21.20
2018-12-22T21:14:20.675Z,21.20
2018-12-22T21:16:48.291Z,20.30
2018-12-22T21:19:15.925Z,21.60
2018-12-22T21:21:44.092Z,22.20
2018-12-22T21:24:11.708Z,23.10
2018-12-22T21:26:39.409Z,22.80
2018-12-22T21:29:07.018Z,22.90
2018-12-22T21:31:34.651Z,22.70
2018-12-22T21:34:02.317Z,23.20
2018-12-22T21:36:30.058Z,23.60
2018-12-22T21:38:57.732Z,23.90
2018-12-22T21:41:25.368Z,23.80
2018-12-22T21:43:53.010Z,23.90
2018-12-22T21:46:20.624Z,24.50
2018-12-22T21:48:48.266Z,24.40
2018-12-22T21:51:16.016Z,23.90
2018-12-22T21:53:43.634Z,24.20
2018-12-22T21:56:11.299Z,24.60
2018-12-22T21:58:38.928Z,24.00
2018-12-22T22:01:06.552Z,23.60
2018-12-22T22:03:34.216Z,24.00
2018-12-22T22:06:01.840Z,24.40
2018-12-22T22:08:29.459Z,23.30
2018-12-22T22:10:57.130Z,23.40
2018-12-22T22:13:24.753Z,23.70
2018-12-22T22:15:52.367Z,24.50
2018-12-22T22:18:20.016Z,23.70
2018-12-22T22:20:47.729Z,23.20
2018-12-22T22:23:19.123Z,23.60
2018-12-22T22:25:46.540Z,23.30
2018-12-22T22:28:14.500Z,23.00
2018-12-22T22:30:42.115Z,22.60
2018-12-22T22:33:10.832Z,21.60
2018-12-22T22:35:38.444Z,22.00
2018-12-22T22:38:06.059Z,22.10
2018-12-22T22:40:33.834Z,22.20
2018-12-22T22:43:01.476Z,22.60
2018-12-22T22:45:29.095Z,22.70
2018-12-22T22:47:56.760Z,22.10
2018-12-22T22:50:24.379Z,22.10
2018-12-22T22:52:51.998Z,21.50
2018-12-22T22:55:19.826Z,21.50
2018-12-22T22:57:47.433Z,21.00
2018-12-22T23:00:17.776Z,21.00
2018-12-22T23:02:45.451Z,21.50
2018-12-22T23:05:13.074Z,20.90
2018-12-22T23:07:40.717Z,20.70
2018-12-22T23:10:09.987Z,21.10
2018-12-22T23:12:37.694Z,20.90
2018-12-22T23:15:05.467Z,21.10
2018-12-22T23:17:33.723Z,20.80
2018-12-22T23:20:01.352Z,21.10
2018-12-22T23:22:28.979Z,21.10
2018-12-22T23:24:56.759Z,19.70
2018-12-22T23:27:24.364Z,21.00
2018-12-22T23:29:52.383Z,21.00
2018-12-22T23:32:19.996Z,21.60
2018-12-22T23:34:47.650Z,22.10
2018-12-22T23:37:15.619Z,21.50
2018-12-22T23:39:43.215Z,21.20
2018-12-22T23:42:10.819Z,21.50
2018-12-22T23:44:38.452Z,21.50
2018-12-22T23:47:06.046Z,21.70
2018-12-22T23:49:33.658Z,20.70
2018-12-22T23:52:01.627Z,20.10
2018-12-22T23:54:29.276Z,20.40
2018-12-22T23:56:56.898Z,20.80
2018-12-22T23:59:24.542Z,21.30
